Wildersville, Tennessee
Current Conditions -  °F | °C
As of 11:55 PM on Friday 19 Dec 2014 (Local Time) from KPVE Reporting Station
Few Clouds Few Clouds  
Wind Chill: 32°   Ceiling: Unl
Heat Index: 36°   Visibility: 10mi
Dew Point: 28°   Wind: 5mph
Humidity: 75%   Direction: 340°NNW
Pressure: 30.22"   Gusts: NA
Location:  35.78°N, 88.36°W
Report Text: KPVE 200555Z AUTO 34004KT 10SM FEW100 02/M02 A3022 RMK
Loading
Personal Weather Stations






























Interactive Weather Map New forecast layout! Learn more

10-Day Weather Forecast

Advertisements
Track Severe Weather on mobile